Terminal Aerodrome Forecast
Issued by NWS Burlington, VT

Home | Current Version | Previous Version | Text Only | Print | Product List | Glossary On
Versions: 1 2 3 4 5 6 7 8 9 10 11 12 13 14 15
000
FTUS41 KBTV 190500
TAFBTV
TAF
KBTV 190528Z 1906/2006 VRB03KT P6SM SCT050
     FM190900 00000KT P6SM SKC
     FM192000 18006KT P6SM FEW200=

USA.gov is the U.S. government's official web portal to all federal, state and local government web resources and services.